createdAt,value
2023-01-29T00:01:55.159Z,7.47
2023-01-29T00:04:22.172Z,8.18
2023-01-29T00:06:49.015Z,5.97
2023-01-29T00:09:15.821Z,7.13
2023-01-29T00:11:42.733Z,8.30
2023-01-29T00:14:09.711Z,8.57
2023-01-29T00:16:36.590Z,7.38
2023-01-29T00:19:04.131Z,7.07
2023-01-29T00:21:32.197Z,7.07
2023-01-29T00:23:59.717Z,5.90
2023-01-29T00:26:27.576Z,6.57
2023-01-29T00:28:55.128Z,6.45
2023-01-29T00:31:24.068Z,9.10
2023-01-29T00:33:51.774Z,7.40
2023-01-29T00:36:19.996Z,7.50
2023-01-29T00:38:54.601Z,6.22
2023-01-29T00:41:41.697Z,6.45
2023-01-29T00:44:27.078Z,7.75
2023-01-29T00:46:54.849Z,7.93
2023-01-29T00:49:22.118Z,7.25
2023-01-29T00:52:09.043Z,5.93
2023-01-29T00:54:36.483Z,7.03
2023-01-29T00:57:04.264Z,7.55
2023-01-29T00:59:31.923Z,6.47
2023-01-29T01:02:17.305Z,8.35
2023-01-29T01:04:44.107Z,7.10
2023-01-29T01:09:55.309Z,8.27
2023-01-29T01:12:22.489Z,9.15
2023-01-29T01:14:49.570Z,6.07
2023-01-29T01:17:16.459Z,8.23
2023-01-29T01:19:43.540Z,7.63
2023-01-29T01:22:10.514Z,8.27
2023-01-29T01:24:37.653Z,7.60
2023-01-29T01:27:04.965Z,8.93
2023-01-29T01:29:31.956Z,6.60
2023-01-29T01:31:59.396Z,8.20
2023-01-29T01:34:27.226Z,6.47
2023-01-29T01:36:56.023Z,7.00
2023-01-29T01:39:23.747Z,9.70
2023-01-29T01:41:51.183Z,9.00
2023-01-29T01:44:52.143Z,10.85
2023-01-29T01:47:29.374Z,7.65
2023-01-29T01:49:57.375Z,6.38
2023-01-29T01:52:24.970Z,7.82
2023-01-29T01:54:52.175Z,10.30
2023-01-29T01:57:25.108Z,8.57
2023-01-29T02:00:10.158Z,7.32
2023-01-29T02:03:04.993Z,5.88
2023-01-29T02:05:52.221Z,7.90
2023-01-29T02:09:11.754Z,6.00
2023-01-29T02:11:39.018Z,7.75
2023-01-29T02:14:05.926Z,9.27
2023-01-29T02:16:37.045Z,7.57
2023-01-29T02:19:07.167Z,6.45
2023-01-29T02:22:00.794Z,8.82
2023-01-29T02:24:41.067Z,7.53
2023-01-29T02:27:12.557Z,7.63
2023-01-29T02:30:00.447Z,6.50
2023-01-29T02:32:31.840Z,11.60
2023-01-29T02:35:29.211Z,7.18
2023-01-29T02:38:09.656Z,7.93
2023-01-29T02:40:44.110Z,5.82
2023-01-29T02:43:27.376Z,6.97
2023-01-29T02:46:01.756Z,8.15
2023-01-29T02:48:39.060Z,8.50
2023-01-29T02:51:11.019Z,10.50
2023-01-29T02:54:30.438Z,9.85
2023-01-29T02:57:03.949Z,7.53
2023-01-29T02:59:39.533Z,5.93
2023-01-29T03:02:12.760Z,6.38
2023-01-29T03:04:47.252Z,6.13
2023-01-29T03:07:38.211Z,8.55
2023-01-29T03:10:12.329Z,5.95
2023-01-29T03:12:40.618Z,4.55
2023-01-29T03:15:17.166Z,6.40
2023-01-29T03:18:07.589Z,7.93
2023-01-29T03:20:38.856Z,6.13
2023-01-29T03:23:16.360Z,6.35
2023-01-29T03:26:02.499Z,5.07
2023-01-29T03:28:50.694Z,3.95
2023-01-29T03:31:37.038Z,4.10
2023-01-29T03:34:10.259Z,6.10
2023-01-29T03:36:45.427Z,3.58
2023-01-29T03:39:14.311Z,3.08
2023-01-29T03:41:50.090Z,3.97
2023-01-29T03:44:52.915Z,4.20
2023-01-29T03:47:43.864Z,3.13
2023-01-29T03:50:48.110Z,3.67
2023-01-29T03:53:48.185Z,3.10
2023-01-29T03:56:39.648Z,3.80
2023-01-29T03:59:18.845Z,3.67
2023-01-29T04:02:10.796Z,2.95
2023-01-29T04:04:39.379Z,4.15
2023-01-29T04:07:27.112Z,4.30
2023-01-29T04:10:10.163Z,2.60
2023-01-29T04:12:42.860Z,4.80
2023-01-29T04:15:15.540Z,3.90
2023-01-29T04:17:47.269Z,3.35
2023-01-29T04:20:28.173Z,3.35
2023-01-29T04:22:54.996Z,3.03
2023-01-29T04:25:31.910Z,5.63
2023-01-29T04:28:28.767Z,2.65
2023-01-29T04:30:59.800Z,3.00
2023-01-29T04:33:38.304Z,2.83
2023-01-29T04:36:26.597Z,2.72
2023-01-29T04:39:19.233Z,2.97
2023-01-29T04:41:55.036Z,2.88
2023-01-29T04:47:32.043Z,2.88
2023-01-29T04:50:13.013Z,2.63
2023-01-29T04:52:54.451Z,3.30
2023-01-29T04:55:36.053Z,2.95
2023-01-29T04:58:05.751Z,3.65
2023-01-29T05:00:39.365Z,2.85
2023-01-29T05:03:06.437Z,2.67
2023-01-29T05:05:33.346Z,2.65
2023-01-29T05:08:00.371Z,2.90
2023-01-29T05:10:27.366Z,3.30
2023-01-29T05:13:01.235Z,3.70
2023-01-29T05:15:33.881Z,3.47
2023-01-29T05:18:03.189Z,4.13
2023-01-29T05:20:34.404Z,2.90
2023-01-29T05:23:01.148Z,2.50
2023-01-29T05:25:30.337Z,4.38
2023-01-29T05:28:07.294Z,2.58
2023-01-29T05:30:36.351Z,3.40
2023-01-29T05:33:04.860Z,3.30
2023-01-29T05:35:31.771Z,2.83
2023-01-29T05:37:58.699Z,4.13
2023-01-29T05:40:25.656Z,3.05
2023-01-29T05:42:52.408Z,3.92
2023-01-29T05:45:19.794Z,3.08
2023-01-29T05:47:47.241Z,3.35
2023-01-29T05:50:15.137Z,3.90
2023-01-29T05:52:42.359Z,5.30
2023-01-29T05:55:10.497Z,2.80
2023-01-29T05:57:37.710Z,3.92
2023-01-29T06:00:05.139Z,3.65
2023-01-29T06:02:39.611Z,4.15
2023-01-29T06:05:06.812Z,4.53
2023-01-29T06:07:33.735Z,3.75
2023-01-29T06:10:00.665Z,3.35
2023-01-29T06:12:27.896Z,3.45
2023-01-29T06:14:54.581Z,3.50
2023-01-29T06:17:21.479Z,4.05
2023-01-29T06:19:48.211Z,4.22
2023-01-29T06:22:15.065Z,4.35
2023-01-29T06:24:41.934Z,4.25
2023-01-29T06:27:08.790Z,3.78
2023-01-29T06:29:36.540Z,4.70
2023-01-29T06:32:03.621Z,5.00
2023-01-29T06:34:30.519Z,4.93
2023-01-29T06:36:57.399Z,4.63
2023-01-29T06:39:24.134Z,3.58
2023-01-29T06:41:50.954Z,5.05
2023-01-29T06:44:17.774Z,4.70
2023-01-29T06:46:44.614Z,3.63
2023-01-29T06:49:11.435Z,4.78
2023-01-29T06:51:38.300Z,4.57
2023-01-29T06:54:06.498Z,5.45
2023-01-29T06:56:33.242Z,3.08
2023-01-29T06:59:00.223Z,4.72
2023-01-29T07:01:35.618Z,4.18
2023-01-29T07:04:03.050Z,3.65
2023-01-29T07:06:30.592Z,5.10
2023-01-29T07:08:57.398Z,6.65
2023-01-29T07:11:24.279Z,5.40
2023-01-29T07:13:51.150Z,4.50
2023-01-29T07:16:19.314Z,5.57
2023-01-29T07:18:46.301Z,5.32
2023-01-29T07:21:13.183Z,5.57
2023-01-29T07:23:39.931Z,6.07
2023-01-29T07:26:07.465Z,5.78
2023-01-29T07:28:38.142Z,6.20
2023-01-29T07:31:05.204Z,4.40
2023-01-29T07:33:32.183Z,5.95
2023-01-29T07:35:59.237Z,6.55
2023-01-29T07:38:26.125Z,5.25
2023-01-29T07:40:53.515Z,5.97
2023-01-29T07:43:20.891Z,7.47
2023-01-29T07:45:47.743Z,6.22
2023-01-29T07:48:14.545Z,5.72
2023-01-29T07:50:41.534Z,6.03
2023-01-29T07:53:14.055Z,6.13
2023-01-29T07:55:41.485Z,5.53
2023-01-29T07:58:09.125Z,6.72
2023-01-29T08:00:36.624Z,5.75
2023-01-29T08:03:11.438Z,7.32
2023-01-29T08:05:38.398Z,6.45
2023-01-29T08:08:07.297Z,6.95
2023-01-29T08:10:39.252Z,7.75
2023-01-29T08:13:06.809Z,5.13
2023-01-29T08:15:34.628Z,6.55
2023-01-29T08:18:02.777Z,8.20
2023-01-29T08:20:30.026Z,8.77
2023-01-29T08:23:05.365Z,9.43
2023-01-29T08:25:32.689Z,6.65
2023-01-29T08:28:00.812Z,6.18
2023-01-29T08:30:29.805Z,7.68
2023-01-29T08:32:56.649Z,9.27
2023-01-29T08:35:23.723Z,6.97
2023-01-29T08:37:55.015Z,8.82
2023-01-29T08:40:22.419Z,8.45
2023-01-29T08:42:49.211Z,6.95
2023-01-29T08:45:16.057Z,9.55
2023-01-29T08:47:49.920Z,5.70
2023-01-29T08:50:17.972Z,8.95
2023-01-29T08:52:45.581Z,5.55
2023-01-29T08:55:12.893Z,7.13
2023-01-29T08:57:40.308Z,9.57
2023-01-29T09:00:10.135Z,10.63
2023-01-29T09:02:37.668Z,10.18
2023-01-29T09:05:05.981Z,8.60
2023-01-29T09:07:33.279Z,8.73
2023-01-29T09:10:03.830Z,7.00
2023-01-29T09:12:30.613Z,9.35
2023-01-29T09:14:57.496Z,6.97
2023-01-29T09:17:24.337Z,10.18
2023-01-29T09:19:53.144Z,8.90
2023-01-29T09:22:20.664Z,10.25
2023-01-29T09:24:47.461Z,8.88
2023-01-29T09:27:14.210Z,8.02
2023-01-29T09:29:41.151Z,10.43
2023-01-29T09:32:07.848Z,7.75
2023-01-29T09:34:35.042Z,11.07
2023-01-29T09:37:01.831Z,11.18
2023-01-29T09:39:28.789Z,8.00
2023-01-29T09:42:00.450Z,8.73
2023-01-29T09:44:45.998Z,10.20
2023-01-29T09:47:15.345Z,10.65
2023-01-29T09:49:47.422Z,7.82
2023-01-29T09:52:28.931Z,8.25
2023-01-29T09:55:10.981Z,9.98
2023-01-29T09:57:56.081Z,11.00
2023-01-29T10:00:30.760Z,9.18
2023-01-29T10:03:03.275Z,9.40
2023-01-29T10:05:32.631Z,9.25
2023-01-29T10:08:02.258Z,9.52
2023-01-29T10:10:36.611Z,9.77
2023-01-29T10:13:26.284Z,10.45
2023-01-29T10:16:28.458Z,9.75
2023-01-29T10:19:04.063Z,11.23
2023-01-29T10:21:36.727Z,10.48
2023-01-29T10:24:08.356Z,11.48
2023-01-29T10:26:37.909Z,8.40
2023-01-29T10:29:07.165Z,12.13
2023-01-29T10:34:11.494Z,13.70
2023-01-29T10:36:47.146Z,10.48
2023-01-29T10:41:45.253Z,10.93
2023-01-29T10:44:28.616Z,9.30
2023-01-29T10:47:06.680Z,12.13
2023-01-29T10:50:17.064Z,12.98
2023-01-29T10:53:33.855Z,11.70
2023-01-29T10:56:22.606Z,14.60
2023-01-29T10:59:29.241Z,13.63
2023-01-29T11:02:00.220Z,12.68
2023-01-29T11:04:27.595Z,14.07
2023-01-29T11:06:54.617Z,15.35
2023-01-29T11:09:24.068Z,13.70
2023-01-29T11:11:54.088Z,10.73
2023-01-29T11:14:42.576Z,11.38
2023-01-29T11:17:20.335Z,13.00
2023-01-29T11:19:48.568Z,12.43
2023-01-29T11:22:34.394Z,11.98
2023-01-29T11:25:18.856Z,10.20
2023-01-29T11:27:56.802Z,14.45
2023-01-29T11:30:24.743Z,14.25
2023-01-29T11:33:22.274Z,13.50
2023-01-29T11:35:49.493Z,15.10
2023-01-29T11:38:16.400Z,13.57
2023-01-29T11:40:43.703Z,11.80
2023-01-29T11:43:21.014Z,14.88
2023-01-29T11:45:54.033Z,15.43
2023-01-29T11:48:22.543Z,11.07
2023-01-29T11:51:05.547Z,14.25
2023-01-29T11:53:37.703Z,12.90
2023-01-29T11:56:07.642Z,10.90
2023-01-29T11:58:35.179Z,12.73
2023-01-29T12:01:03.111Z,14.68
2023-01-29T12:03:33.598Z,12.40
2023-01-29T12:06:03.411Z,15.45
2023-01-29T12:08:39.977Z,12.02
2023-01-29T12:11:09.887Z,13.93
2023-01-29T12:13:37.005Z,14.73
2023-01-29T12:19:33.767Z,12.00
2023-01-29T12:22:08.927Z,16.80
2023-01-29T12:24:41.990Z,15.13
2023-01-29T12:27:17.858Z,12.60
2023-01-29T12:29:59.653Z,16.08
2023-01-29T12:32:41.712Z,16.33
2023-01-29T12:35:19.665Z,13.52
2023-01-29T12:38:03.958Z,16.58
2023-01-29T12:40:47.129Z,15.18
2023-01-29T12:43:17.179Z,18.10
2023-01-29T12:45:47.383Z,15.93
2023-01-29T12:48:19.621Z,14.70
2023-01-29T12:50:47.454Z,16.48
2023-01-29T12:53:33.619Z,15.10
2023-01-29T12:56:03.799Z,18.58
2023-01-29T12:58:37.683Z,13.45
2023-01-29T13:01:31.295Z,11.13
2023-01-29T13:04:12.194Z,14.38
2023-01-29T13:06:42.961Z,12.75
2023-01-29T13:09:14.702Z,13.80
2023-01-29T13:11:54.262Z,11.77
2023-01-29T13:14:36.393Z,19.92
2023-01-29T13:17:26.860Z,11.15
2023-01-29T13:19:55.777Z,11.00
2023-01-29T13:22:29.273Z,15.10
2023-01-29T13:25:04.615Z,12.50
2023-01-29T13:27:34.232Z,13.90
2023-01-29T13:30:01.623Z,13.75
2023-01-29T13:32:30.836Z,13.38
2023-01-29T13:35:00.428Z,12.25
2023-01-29T13:37:34.082Z,12.00
2023-01-29T13:40:02.062Z,11.95
2023-01-29T13:42:45.729Z,13.10
2023-01-29T13:45:26.129Z,14.73
2023-01-29T13:47:53.413Z,78.82
2023-01-29T13:50:30.619Z,19.80
2023-01-29T13:53:02.302Z,17.17
2023-01-29T13:55:36.655Z,26.83
2023-01-29T13:58:04.778Z,18.27
2023-01-29T14:00:34.496Z,17.58
2023-01-29T14:03:01.237Z,18.13
2023-01-29T14:05:31.090Z,17.30
2023-01-29T14:08:02.169Z,17.10
2023-01-29T14:10:34.123Z,19.08
2023-01-29T14:13:03.901Z,17.05
2023-01-29T14:15:35.872Z,19.48
2023-01-29T14:18:13.528Z,19.50
2023-01-29T14:21:02.607Z,16.77
2023-01-29T14:23:41.520Z,19.25
2023-01-29T14:26:53.242Z,16.48
2023-01-29T14:29:34.697Z,14.63
2023-01-29T14:34:51.551Z,12.15
2023-01-29T14:37:21.932Z,17.73
2023-01-29T14:39:50.276Z,16.75
2023-01-29T14:42:29.767Z,16.20
2023-01-29T14:45:08.495Z,15.95
2023-01-29T14:47:35.302Z,19.45
2023-01-29T14:50:23.246Z,19.80
2023-01-29T14:52:53.949Z,18.50
2023-01-29T14:55:38.061Z,21.20
2023-01-29T14:58:05.003Z,19.20
2023-01-29T15:00:35.134Z,18.33
2023-01-29T15:03:03.096Z,17.83
2023-01-29T15:05:33.019Z,21.92
2023-01-29T15:08:30.098Z,25.75
2023-01-29T15:11:18.633Z,22.15
2023-01-29T15:14:04.627Z,16.95
2023-01-29T15:16:46.452Z,18.65
2023-01-29T15:19:36.393Z,15.75
2023-01-29T15:22:17.645Z,15.77
2023-01-29T15:24:45.856Z,14.73
2023-01-29T15:27:18.073Z,12.90
2023-01-29T15:29:49.109Z,18.13
2023-01-29T15:32:27.218Z,16.48
2023-01-29T15:34:55.937Z,16.73
2023-01-29T15:37:33.743Z,27.52
2023-01-29T15:40:17.438Z,17.92
2023-01-29T15:42:46.754Z,23.90
2023-01-29T15:45:27.387Z,26.65
2023-01-29T15:47:57.724Z,29.05
2023-01-29T15:50:24.693Z,43.70
2023-01-29T15:52:52.546Z,38.45
2023-01-29T15:55:22.029Z,26.50
2023-01-29T15:57:49.379Z,29.58
2023-01-29T16:00:25.038Z,28.83
2023-01-29T16:02:52.016Z,25.35
2023-01-29T16:05:22.954Z,24.65
2023-01-29T16:07:50.936Z,22.63
2023-01-29T16:10:20.303Z,29.13
2023-01-29T16:12:51.459Z,20.67
2023-01-29T16:15:33.714Z,21.23
2023-01-29T16:18:02.552Z,22.90
2023-01-29T16:20:37.301Z,23.92
2023-01-29T16:23:05.026Z,22.73
2023-01-29T16:25:32.574Z,18.88
2023-01-29T16:28:03.826Z,23.17
2023-01-29T16:30:30.640Z,25.98
2023-01-29T16:33:02.570Z,22.00
2023-01-29T16:35:29.496Z,21.73
2023-01-29T16:38:02.760Z,20.25
2023-01-29T16:40:33.300Z,20.30
2023-01-29T16:43:28.165Z,26.38
2023-01-29T16:46:06.040Z,22.58
2023-01-29T16:48:34.672Z,25.67
2023-01-29T16:51:13.050Z,26.17
2023-01-29T16:53:40.010Z,26.75
2023-01-29T16:56:08.725Z,31.02
2023-01-29T16:58:35.612Z,30.95
2023-01-29T17:01:06.081Z,37.10
2023-01-29T17:03:34.076Z,37.53
2023-01-29T17:06:11.943Z,49.75
2023-01-29T17:08:41.924Z,39.17
2023-01-29T17:11:23.346Z,30.42
2023-01-29T17:13:50.276Z,36.97
2023-01-29T17:16:34.439Z,35.63
2023-01-29T17:19:01.403Z,27.13
2023-01-29T17:21:29.370Z,22.50
2023-01-29T17:23:56.148Z,21.15
2023-01-29T17:26:23.298Z,22.77
2023-01-29T17:28:51.192Z,23.95
2023-01-29T17:31:18.020Z,25.02
2023-01-29T17:33:45.946Z,23.08
2023-01-29T17:36:15.772Z,25.45
2023-01-29T17:38:42.963Z,22.30
2023-01-29T17:41:18.542Z,18.85
2023-01-29T17:43:45.832Z,19.10
2023-01-29T17:46:15.703Z,20.33
2023-01-29T17:48:43.025Z,21.88
2023-01-29T17:51:13.848Z,27.40
2023-01-29T17:53:46.033Z,17.20
2023-01-29T17:56:21.843Z,20.02
2023-01-29T17:58:48.842Z,18.52
2023-01-29T18:01:15.650Z,21.50
2023-01-29T18:03:42.537Z,17.95
2023-01-29T18:06:10.392Z,24.42
2023-01-29T18:08:38.581Z,20.30
2023-01-29T18:11:06.102Z,21.08
2023-01-29T18:13:33.383Z,19.20
2023-01-29T18:16:00.460Z,22.77
2023-01-29T18:18:27.161Z,22.98
2023-01-29T18:20:53.979Z,47.40
2023-01-29T18:23:21.104Z,69.28
2023-01-29T18:25:47.981Z,47.90
2023-01-29T18:28:17.965Z,45.90
2023-01-29T18:30:47.915Z,52.45
2023-01-29T18:33:15.738Z,40.95
2023-01-29T18:35:48.119Z,26.50
2023-01-29T18:38:15.507Z,25.20
2023-01-29T18:40:42.276Z,25.23
2023-01-29T18:43:09.274Z,28.08
2023-01-29T18:45:36.269Z,35.03
2023-01-29T18:48:03.085Z,48.08
2023-01-29T18:50:29.974Z,45.78
2023-01-29T18:52:56.821Z,45.38
2023-01-29T18:55:23.607Z,19.67
2023-01-29T18:58:25.254Z,20.38
2023-01-29T19:00:41.268Z,22.67
2023-01-29T19:03:08.394Z,19.77
2023-01-29T19:05:35.331Z,21.67
2023-01-29T19:08:02.145Z,19.13
2023-01-29T19:10:28.991Z,29.70
2023-01-29T19:12:55.715Z,23.17
2023-01-29T19:15:22.985Z,22.70
2023-01-29T19:17:51.021Z,22.75
2023-01-29T19:20:18.224Z,24.15
2023-01-29T19:22:45.309Z,21.40
2023-01-29T19:25:12.837Z,20.65
2023-01-29T19:27:39.867Z,18.27
2023-01-29T19:30:07.633Z,19.98
2023-01-29T19:32:34.649Z,25.20
2023-01-29T19:35:01.580Z,21.58
2023-01-29T19:37:28.667Z,23.80
2023-01-29T19:39:55.756Z,19.15
2023-01-29T19:42:22.762Z,22.25
2023-01-29T19:44:51.361Z,19.75
2023-01-29T19:47:18.215Z,23.08
2023-01-29T19:49:45.151Z,19.98
2023-01-29T19:52:38.509Z,19.67
2023-01-29T19:55:16.402Z,18.85
2023-01-29T19:57:43.331Z,16.23
2023-01-29T20:00:12.200Z,18.63
2023-01-29T20:02:39.045Z,22.75
2023-01-29T20:05:07.985Z,19.38
2023-01-29T20:07:36.095Z,20.42
2023-01-29T20:10:03.534Z,21.08
2023-01-29T20:12:30.331Z,21.05
2023-01-29T20:14:57.212Z,30.10
2023-01-29T20:17:23.934Z,22.58
2023-01-29T20:19:50.673Z,25.65
2023-01-29T20:22:17.493Z,26.00
2023-01-29T20:24:44.370Z,21.95
2023-01-29T20:27:11.624Z,21.67
2023-01-29T20:29:39.331Z,24.33
2023-01-29T20:32:08.735Z,21.20
2023-01-29T20:34:36.169Z,20.20
2023-01-29T20:37:03.294Z,18.35
2023-01-29T20:39:29.987Z,22.15
2023-01-29T20:41:57.388Z,17.55
2023-01-29T20:44:25.119Z,22.02
2023-01-29T20:46:52.297Z,21.73
2023-01-29T20:49:19.508Z,16.63
2023-01-29T20:51:49.110Z,19.38
2023-01-29T20:54:15.920Z,18.95
2023-01-29T20:56:44.015Z,21.45
2023-01-29T20:59:11.829Z,18.75
2023-01-29T21:01:38.584Z,11.95
2023-01-29T21:04:05.523Z,23.00
2023-01-29T21:06:32.347Z,16.98
2023-01-29T21:08:59.124Z,18.90
2023-01-29T21:11:26.056Z,22.65
2023-01-29T21:13:57.623Z,14.98
2023-01-29T21:16:26.382Z,21.23
2023-01-29T21:19:03.395Z,17.67
2023-01-29T21:21:30.255Z,15.05
2023-01-29T21:23:58.281Z,13.98
2023-01-29T21:26:25.213Z,11.13
2023-01-29T21:28:52.112Z,7.85
2023-01-29T21:31:18.981Z,10.23
2023-01-29T21:33:45.769Z,8.50
2023-01-29T21:36:12.700Z,8.00
2023-01-29T21:38:40.119Z,11.10
2023-01-29T21:41:09.751Z,13.45
2023-01-29T21:43:37.080Z,8.27
2023-01-29T21:46:11.544Z,14.57
2023-01-29T21:48:39.407Z,14.75
2023-01-29T21:51:06.526Z,17.02
2023-01-29T21:53:33.607Z,15.45
2023-01-29T21:56:01.929Z,15.77
2023-01-29T21:58:28.924Z,17.83
2023-01-29T22:00:55.706Z,17.88
2023-01-29T22:03:22.612Z,17.88
2023-01-29T22:05:50.235Z,28.23
2023-01-29T22:08:17.931Z,22.40
2023-01-29T22:10:45.097Z,22.90
2023-01-29T22:13:12.064Z,14.80
2023-01-29T22:15:38.812Z,17.63
2023-01-29T22:18:05.764Z,19.02
2023-01-29T22:20:32.630Z,16.38
2023-01-29T22:23:00.685Z,16.83
2023-01-29T22:25:27.934Z,12.32
2023-01-29T22:27:55.101Z,13.88
2023-01-29T22:30:23.400Z,13.63
2023-01-29T22:32:50.933Z,13.57
2023-01-29T22:35:17.835Z,13.70
2023-01-29T22:37:45.201Z,16.35
2023-01-29T22:40:13.116Z,11.77
2023-01-29T22:42:40.070Z,14.35
2023-01-29T22:45:08.141Z,10.52
2023-01-29T22:47:34.940Z,12.52
2023-01-29T22:50:01.880Z,12.05
2023-01-29T22:52:28.791Z,12.63
2023-01-29T22:54:55.501Z,11.13
2023-01-29T22:57:22.350Z,11.05
2023-01-29T22:59:49.160Z,12.60
2023-01-29T23:02:15.991Z,13.73
2023-01-29T23:04:42.907Z,13.90
2023-01-29T23:07:09.751Z,11.13
2023-01-29T23:09:36.524Z,14.25
2023-01-29T23:12:03.462Z,13.30
2023-01-29T23:14:30.196Z,11.32
2023-01-29T23:16:57.044Z,12.85
2023-01-29T23:19:23.862Z,10.90
2023-01-29T23:21:50.764Z,11.48
2023-01-29T23:24:17.695Z,10.20
2023-01-29T23:27:03.165Z,11.40
2023-01-29T23:29:30.147Z,12.63
2023-01-29T23:31:56.904Z,10.57
2023-01-29T23:34:24.054Z,13.40
2023-01-29T23:36:50.884Z,14.25
2023-01-29T23:39:17.781Z,13.23
2023-01-29T23:41:44.567Z,11.52
2023-01-29T23:44:11.432Z,10.15
2023-01-29T23:46:38.257Z,7.05
2023-01-29T23:49:05.041Z,10.13
2023-01-29T23:51:31.891Z,12.32
2023-01-29T23:53:58.736Z,9.20
2023-01-29T23:56:25.771Z,11.82
2023-01-29T23:58:54.524Z,13.00
